Time;durP1;ratioP1;P1;durP2;ratioP2;P2;SDS_P1;SDS_P2;PMS_P1;PMS_P2;Temp;Humidity;BMP_temperature;BMP_pressure;BME280_temperature;BME280_humidity;BME280_pressure;Samples;Min_cycle;Max_cycle;Signal;HPM_P1;HPM_P2
2022/07/09 00:01:41;;;;;;;2.60;0.47;;;28.50;38.20;;;;;;5076268;28;20142;-57
2022/07/09 00:04:08;;;;;;;0.95;0.88;;;28.40;38.30;;;;;;5080876;28;20080;-57
2022/07/09 00:06:35;;;;;;;2.45;0.30;;;28.40;38.30;;;;;;5074924;28;20413;-57
2022/07/09 00:09:02;;;;;;;1.00;0.45;;;28.40;38.40;;;;;;5081975;28;20048;-58
2022/07/09 00:11:30;;;;;;;2.85;0.20;;;28.40;38.60;;;;;;5076464;28;20040;-57
2022/07/09 00:13:58;;;;;;;2.10;0.15;;;28.30;38.60;;;;;;5075653;28;20040;-57
2022/07/09 00:16:25;;;;;;;4.63;0.20;;;28.30;38.80;;;;;;5080687;28;20041;-57
2022/07/09 00:18:52;;;;;;;1.25;0.43;;;28.30;38.90;;;;;;5089173;28;20039;-58
2022/07/09 00:21:19;;;;;;;0.45;0.35;;;28.20;39.00;;;;;;5078593;28;20036;-58
2022/07/09 00:23:46;;;;;;;1.52;0.30;;;28.20;39.00;;;;;;5078192;28;20048;-57
2022/07/09 00:26:13;;;;;;;3.92;0.55;;;28.20;39.10;;;;;;5078394;28;20516;-57
2022/07/09 00:28:42;;;;;;;1.33;0.30;;;28.20;39.20;;;;;;5085593;28;20086;-57
2022/07/09 00:31:09;;;;;;;2.85;0.40;;;28.10;39.20;;;;;;5078263;28;20036;-57
2022/07/09 00:33:36;;;;;;;3.40;0.38;;;28.10;39.30;;;;;;5081044;28;20447;-57
2022/07/09 00:36:04;;;;;;;1.85;0.75;;;28.10;39.30;;;;;;5060402;28;20040;-58
2022/07/09 00:38:31;;;;;;;0.57;0.10;;;28.10;39.50;;;;;;5073241;28;20500;-58
2022/07/09 00:40:58;;;;;;;6.78;0.43;;;28.10;39.50;;;;;;5075761;28;27029;-57
2022/07/09 00:43:25;;;;;;;1.40;0.28;;;28.10;39.60;;;;;;5085325;28;20472;-57
2022/07/09 00:45:53;;;;;;;1.00;0.20;;;28.00;39.50;;;;;;5077311;28;20036;-59
2022/07/09 00:48:20;;;;;;;0.40;0.10;;;28.00;39.60;;;;;;5081420;28;20047;-55
2022/07/09 00:50:48;;;;;;;0.75;0.22;;;28.00;39.70;;;;;;5073011;28;20044;-57
2022/07/09 00:53:17;;;;;;;3.10;0.30;;;28.00;39.80;;;;;;5077323;28;20036;-57
2022/07/09 00:55:47;;;;;;;1.80;0.20;;;27.90;39.80;;;;;;5077259;28;20040;-58
2022/07/09 00:58:16;;;;;;;2.10;0.40;;;27.90;39.80;;;;;;5083872;28;20064;-57
2022/07/09 01:00:44;;;;;;;0.52;0.20;;;27.90;39.90;;;;;;5081735;28;20064;-56
2022/07/09 01:03:13;;;;;;;0.55;0.10;;;27.90;39.90;;;;;;5084307;28;20093;-58
2022/07/09 01:05:40;;;;;;;0.20;0.20;;;27.80;39.90;;;;;;5075592;28;20048;-57
2022/07/09 01:08:08;;;;;;;2.20;0.45;;;27.90;40.60;;;;;;5077129;28;20193;-58
2022/07/09 01:10:36;;;;;;;0.45;0.15;;;27.80;40.00;;;;;;5085721;28;20044;-57
2022/07/09 01:13:05;;;;;;;0.50;0.20;;;27.80;40.00;;;;;;5084297;28;20865;-56
2022/07/09 01:15:32;;;;;;;4.25;0.13;;;27.80;40.10;;;;;;5080904;28;20541;-57
2022/07/09 01:18:00;;;;;;;0.50;0.28;;;27.80;40.20;;;;;;5076478;28;20041;-57
2022/07/09 01:20:29;;;;;;;3.22;0.28;;;27.80;40.20;;;;;;5078403;28;20166;-57
2022/07/09 01:22:57;;;;;;;0.45;0.15;;;27.80;40.30;;;;;;5079070;28;20106;-58
2022/07/09 01:25:32;;;;;;;1.35;0.10;;;27.70;40.20;;;;;;5088041;28;20040;-58
2022/07/09 01:27:59;;;;;;;3.55;0.20;;;27.70;40.30;;;;;;5075829;28;20497;-58
2022/07/09 01:30:27;;;;;;;0.10;0.10;;;27.70;40.30;;;;;;5080323;28;20047;-58
2022/07/09 01:32:55;;;;;;;3.30;0.10;;;27.70;40.40;;;;;;5080035;28;20047;-58
2022/07/09 01:35:22;;;;;;;3.30;0.45;;;27.70;40.40;;;;;;5063983;28;20094;-58
2022/07/09 01:37:51;;;;;;;1.48;0.10;;;27.60;40.30;;;;;;5074352;28;20417;-58
2022/07/09 01:40:18;;;;;;;1.30;0.88;;;27.60;40.40;;;;;;5080483;28;20043;-59
2022/07/09 01:42:45;;;;;;;1.33;0.10;;;27.60;40.50;;;;;;5076389;28;20493;-59
2022/07/09 01:45:12;;;;;;;2.80;0.45;;;27.60;40.50;;;;;;5080458;28;20042;-58
2022/07/09 01:47:39;;;;;;;0.65;0.10;;;27.60;40.50;;;;;;5056611;28;20044;-58
2022/07/09 01:50:08;;;;;;;0.65;0.10;;;27.60;40.50;;;;;;5076541;28;20048;-58
2022/07/09 01:52:36;;;;;;;0.20;0.15;;;27.60;40.60;;;;;;5076176;28;20423;-57
2022/07/09 01:55:05;;;;;;;2.33;0.75;;;27.50;40.60;;;;;;5076423;28;20048;-58
2022/07/09 01:57:32;;;;;;;6.43;1.55;;;27.50;40.60;;;;;;5075293;28;20456;-58
2022/07/09 01:59:59;;;;;;;3.25;0.20;;;27.50;40.70;;;;;;5075396;28;20043;-58
2022/07/09 02:02:26;;;;;;;0.38;0.25;;;27.50;41.40;;;;;;5074796;28;20105;-58
2022/07/09 02:04:54;;;;;;;1.00;0.20;;;27.50;40.80;;;;;;5074611;28;20110;-58
2022/07/09 02:07:22;;;;;;;1.90;0.10;;;27.40;40.80;;;;;;5076273;28;20094;-58
2022/07/09 02:09:49;;;;;;;1.42;0.45;;;27.40;40.90;;;;;;5072857;28;20123;-58
2022/07/09 02:12:18;;;;;;;0.30;0.10;;;27.40;41.00;;;;;;5078522;28;20068;-58
2022/07/09 02:14:45;;;;;;;0.85;0.10;;;27.40;41.00;;;;;;5069635;28;20436;-58
2022/07/09 02:17:12;;;;;;;1.58;0.20;;;27.40;41.00;;;;;;5076964;28;20580;-59
2022/07/09 02:19:39;;;;;;;0.50;0.10;;;27.40;41.00;;;;;;5074717;28;20036;-58
2022/07/09 02:22:06;;;;;;;0.38;0.10;;;27.40;41.00;;;;;;5080688;28;20044;-58
2022/07/09 02:24:33;;;;;;;1.33;0.10;;;27.30;41.00;;;;;;5082702;28;20789;-56
2022/07/09 02:27:01;;;;;;;0.52;0.10;;;27.30;41.10;;;;;;5079406;28;20093;-58
2022/07/09 02:29:30;;;;;;;0.20;0.10;;;27.30;41.20;;;;;;5073937;28;20407;-57
2022/07/09 02:31:57;;;;;;;1.88;0.10;;;27.30;41.20;;;;;;5081521;28;20185;-57
2022/07/09 02:34:24;;;;;;;1.00;0.13;;;27.20;41.10;;;;;;5086714;28;20039;-59
2022/07/09 02:36:52;;;;;;;6.28;0.20;;;27.30;41.20;;;;;;5069656;28;20139;-58
2022/07/09 02:39:19;;;;;;;0.20;0.10;;;27.20;41.20;;;;;;5079494;28;20106;-58
2022/07/09 02:41:46;;;;;;;1.70;0.20;;;27.20;41.20;;;;;;5059337;28;20075;-58
2022/07/09 02:44:13;;;;;;;4.18;0.10;;;27.20;41.20;;;;;;5070728;28;20032;-58
2022/07/09 02:46:41;;;;;;;1.20;0.15;;;27.10;41.30;;;;;;5071166;28;20053;-58
2022/07/09 02:49:10;;;;;;;0.63;0.10;;;27.20;42.00;;;;;;5078820;28;20036;-58
2022/07/09 02:51:37;;;;;;;0.20;0.10;;;27.10;41.40;;;;;;5075093;28;20036;-58
2022/07/09 02:54:04;;;;;;;2.15;0.10;;;27.10;41.40;;;;;;5080266;28;20040;-57
2022/07/09 02:56:31;;;;;;;1.65;0.10;;;27.10;41.50;;;;;;5067623;28;20098;-58
2022/07/09 02:58:58;;;;;;;0.43;0.20;;;27.10;41.60;;;;;;5075533;28;20036;-58
2022/07/09 03:01:26;;;;;;;0.90;0.10;;;27.00;41.50;;;;;;5072791;28;20265;-57
2022/07/09 03:03:54;;;;;;;1.42;0.10;;;27.00;41.50;;;;;;5076672;28;20040;-56
2022/07/09 03:06:22;;;;;;;0.20;0.20;;;27.00;41.60;;;;;;5078691;28;20505;-57
2022/07/09 03:08:49;;;;;;;0.95;0.17;;;27.00;41.70;;;;;;5070387;28;20046;-58
2022/07/09 03:11:16;;;;;;;1.48;0.10;;;27.00;41.70;;;;;;5071889;28;20036;-56
2022/07/09 03:13:43;;;;;;;0.88;0.28;;;26.90;41.70;;;;;;5073762;28;20531;-55
2022/07/09 03:16:11;;;;;;;1.02;0.20;;;27.00;41.80;;;;;;5087294;28;20036;-55
2022/07/09 03:18:39;;;;;;;1.65;0.20;;;27.00;41.90;;;;;;5078584;28;20382;-57
2022/07/09 03:21:09;;;;;;;0.20;0.10;;;26.90;41.90;;;;;;5077642;28;20060;-57
2022/07/09 03:23:36;;;;;;;1.20;0.35;;;26.90;42.00;;;;;;5075763;28;20048;-57
2022/07/09 03:26:05;;;;;;;1.35;0.10;;;26.90;42.00;;;;;;5080493;28;20392;-57
2022/07/09 03:28:32;;;;;;;0.65;0.40;;;26.90;42.00;;;;;;5080050;28;20051;-59
2022/07/09 03:30:59;;;;;;;1.38;0.10;;;26.80;41.90;;;;;;5083602;28;20031;-60
2022/07/09 03:33:26;;;;;;;1.75;0.10;;;26.80;42.00;;;;;;5080703;28;20067;-59
2022/07/09 03:35:55;;;;;;;2.05;0.10;;;26.80;42.10;;;;;;5084841;28;20032;-56
2022/07/09 03:38:23;;;;;;;1.55;0.20;;;26.80;42.10;;;;;;5067295;28;20044;-57
2022/07/09 03:40:50;;;;;;;1.55;0.40;;;26.80;42.10;;;;;;5073768;28;20064;-59
2022/07/09 03:43:17;;;;;;;1.17;0.28;;;26.80;42.10;;;;;;5073797;28;20041;-57
2022/07/09 03:45:44;;;;;;;0.85;0.20;;;26.70;42.70;;;;;;5077704;28;20123;-58
2022/07/09 03:48:12;;;;;;;0.10;0.10;;;26.80;42.20;;;;;;5073011;28;20089;-59
2022/07/09 03:50:39;;;;;;;0.90;0.10;;;26.70;42.10;;;;;;5074982;28;20041;-57
2022/07/09 03:53:06;;;;;;;1.95;0.10;;;26.70;42.20;;;;;;5074808;28;20099;-56
2022/07/09 03:55:34;;;;;;;1.13;0.10;;;26.70;42.20;;;;;;5058758;28;20138;-57
2022/07/09 03:58:01;;;;;;;0.13;0.10;;;26.70;42.20;;;;;;5080635;28;20096;-59
2022/07/09 04:00:29;;;;;;;0.47;0.22;;;26.60;42.20;;;;;;5077008;28;20067;-58
2022/07/09 04:02:56;;;;;;;2.38;0.20;;;26.60;42.20;;;;;;5080080;28;20044;-58
2022/07/09 04:05:23;;;;;;;3.28;0.22;;;26.60;42.50;;;;;;5071526;28;20421;-57
2022/07/09 04:07:50;;;;;;;0.17;0.10;;;26.60;42.20;;;;;;5059559;28;20394;-58
2022/07/09 04:10:17;;;;;;;1.05;0.10;;;26.60;42.30;;;;;;5073295;28;20043;-57
2022/07/09 04:12:46;;;;;;;0.90;0.10;;;26.60;42.30;;;;;;5079887;28;20101;-57
2022/07/09 04:15:14;;;;;;;0.35;0.20;;;26.60;42.40;;;;;;5077004;28;20068;-57
2022/07/09 04:17:41;;;;;;;0.68;0.40;;;26.50;42.30;;;;;;5073834;28;20151;-58
2022/07/09 04:20:10;;;;;;;0.20;0.20;;;26.50;42.30;;;;;;5078721;28;20043;-59
2022/07/09 04:22:37;;;;;;;1.55;0.10;;;26.50;42.30;;;;;;5088106;28;20070;-58
2022/07/09 04:25:04;;;;;;;2.35;0.10;;;26.50;42.30;;;;;;5080682;28;20503;-58
2022/07/09 04:27:31;;;;;;;1.25;0.10;;;26.50;42.30;;;;;;5076621;28;20047;-58
2022/07/09 04:29:59;;;;;;;0.95;0.10;;;26.40;42.30;;;;;;5057457;28;21060;-58
2022/07/09 04:32:26;;;;;;;1.00;0.10;;;26.40;42.20;;;;;;5082779;28;20081;-56
2022/07/09 04:34:53;;;;;;;1.17;0.10;;;26.40;42.20;;;;;;5072106;28;20040;-58
2022/07/09 04:37:20;;;;;;;0.38;0.20;;;26.40;42.20;;;;;;5062613;28;20067;-58
2022/07/09 04:39:48;;;;;;;5.15;1.00;;;26.40;42.20;;;;;;5082344;28;20044;-57
2022/07/09 04:42:15;;;;;;;0.32;0.25;;;26.40;42.30;;;;;;5076751;28;20263;-58
2022/07/09 04:44:42;;;;;;;0.55;0.10;;;26.40;42.30;;;;;;5073704;28;20588;-57
2022/07/09 04:47:11;;;;;;;0.77;0.15;;;26.30;42.20;;;;;;5084889;28;20511;-55
2022/07/09 04:49:38;;;;;;;2.72;0.10;;;26.30;42.30;;;;;;5086709;28;20037;-58
2022/07/09 04:52:06;;;;;;;1.85;0.20;;;26.30;42.30;;;;;;5087073;28;20127;-57
2022/07/09 04:54:33;;;;;;;0.98;0.25;;;26.30;42.30;;;;;;5085666;28;20040;-55
2022/07/09 04:57:00;;;;;;;1.45;0.30;;;26.30;42.90;;;;;;5077393;28;20043;-56
2022/07/09 04:59:27;;;;;;;3.35;0.20;;;26.30;42.40;;;;;;5079493;28;20033;-57
2022/07/09 05:01:55;;;;;;;2.20;0.20;;;26.30;42.40;;;;;;5084181;28;20541;-57
2022/07/09 05:04:23;;;;;;;1.85;0.30;;;26.20;42.40;;;;;;5078020;28;20051;-57
2022/07/09 05:06:50;;;;;;;6.50;0.20;;;26.20;42.50;;;;;;5077019;28;20043;-56
2022/07/09 05:09:17;;;;;;;5.70;0.50;;;26.20;42.50;;;;;;5081238;28;20040;-57
2022/07/09 05:11:44;;;;;;;1.08;0.30;;;26.20;42.60;;;;;;5071363;28;20562;-56
2022/07/09 05:14:12;;;;;;;0.35;0.13;;;26.20;42.60;;;;;;5074193;28;20044;-57
2022/07/09 05:16:44;;;;;;;0.47;0.20;;;26.20;42.60;;;;;;5083820;28;20630;-58
2022/07/09 05:19:11;;;;;;;3.00;0.20;;;26.20;42.70;;;;;;5084090;28;20038;-58
2022/07/09 05:21:39;;;;;;;0.60;0.20;;;26.20;42.70;;;;;;5079808;28;20032;-58
2022/07/09 05:24:07;;;;;;;0.95;0.30;;;26.20;42.80;;;;;;5079521;28;20132;-57
2022/07/09 05:26:34;;;;;;;2.05;0.20;;;26.10;42.80;;;;;;5075832;28;20717;-56
2022/07/09 05:29:01;;;;;;;2.17;0.30;;;26.10;42.80;;;;;;5086187;28;20049;-57
2022/07/09 05:31:28;;;;;;;0.38;0.35;;;26.10;42.90;;;;;;5083013;28;20036;-57
2022/07/09 05:33:55;;;;;;;1.10;0.45;;;26.10;43.00;;;;;;5065662;28;20125;-56
2022/07/09 05:36:22;;;;;;;0.55;0.20;;;26.00;42.90;;;;;;5063775;28;20051;-58
2022/07/09 05:38:51;;;;;;;2.22;0.50;;;26.00;43.00;;;;;;5070955;28;20052;-59
2022/07/09 05:41:19;;;;;;;1.35;0.20;;;26.00;43.10;;;;;;5081917;28;20047;-59
2022/07/09 05:43:46;;;;;;;1.60;0.68;;;26.00;43.10;;;;;;5074917;28;20059;-59
2022/07/09 05:46:13;;;;;;;5.93;0.40;;;26.00;43.20;;;;;;5086484;28;20036;-56
2022/07/09 05:48:40;;;;;;;1.77;0.20;;;26.00;43.20;;;;;;5071786;28;20040;-54
2022/07/09 05:51:07;;;;;;;0.25;0.10;;;26.00;43.30;;;;;;5079002;28;20063;-53
2022/07/09 05:53:34;;;;;;;1.38;0.30;;;26.00;43.30;;;;;;5079786;28;20059;-56
2022/07/09 05:56:02;;;;;;;0.47;0.10;;;26.00;43.40;;;;;;5076203;28;20063;-54
2022/07/09 05:58:29;;;;;;;0.45;0.45;;;26.00;43.50;;;;;;5079947;28;20055;-51
2022/07/09 06:00:57;;;;;;;4.28;0.10;;;25.90;43.40;;;;;;5086698;28;20040;-50
2022/07/09 06:03:24;;;;;;;2.42;0.65;;;25.90;43.40;;;;;;5085596;28;20476;-55
2022/07/09 06:05:51;;;;;;;2.83;0.30;;;25.90;43.80;;;;;;5076768;28;20062;-57
2022/07/09 06:08:18;;;;;;;0.55;0.20;;;26.00;45.10;;;;;;5055223;28;20113;-60
2022/07/09 06:10:45;;;;;;;6.55;0.40;;;26.10;44.90;;;;;;5078586;28;20494;-52
2022/07/09 06:13:13;;;;;;;2.42;0.10;;;26.20;45.10;;;;;;5085089;28;20188;-52
2022/07/09 06:15:40;;;;;;;2.47;0.10;;;26.30;45.50;;;;;;5080359;28;20407;-51
2022/07/09 06:18:07;;;;;;;0.80;0.10;;;26.40;45.60;;;;;;5058726;28;20412;-51
2022/07/09 06:20:34;;;;;;;2.05;0.30;;;26.50;45.60;;;;;;5075201;28;20032;-51
2022/07/09 06:23:02;;;;;;;9.38;0.35;;;26.60;45.70;;;;;;5081706;28;20047;-49
2022/07/09 06:25:29;;;;;;;5.32;1.13;;;26.70;46.10;;;;;;5073384;28;20119;-53
2022/07/09 06:27:57;;;;;;;3.47;0.35;;;26.80;46.30;;;;;;5079471;28;20036;-54
2022/07/09 06:30:25;;;;;;;5.57;0.95;;;26.90;47.20;;;;;;5076939;28;20416;-45
2022/07/09 06:32:52;;;;;;;3.58;0.30;;;27.00;46.80;;;;;;5086110;28;20134;-55
2022/07/09 06:35:20;;;;;;;2.58;0.60;;;27.00;46.80;;;;;;5070636;28;20546;-51
2022/07/09 06:37:47;;;;;;;11.00;0.50;;;27.20;46.90;;;;;;5074100;28;20072;-55
2022/07/09 06:40:14;;;;;;;2.28;0.25;;;27.20;46.70;;;;;;5075434;28;20048;-55
2022/07/09 06:42:41;;;;;;;5.88;1.33;;;27.30;46.70;;;;;;5078299;28;20115;-54
2022/07/09 06:45:18;;;;;;;5.07;0.68;;;27.30;46.50;;;;;;5076435;28;20589;-53
2022/07/09 06:47:46;;;;;;;5.85;0.28;;;27.40;46.40;;;;;;5072273;28;20071;-51
2022/07/09 06:50:14;;;;;;;3.90;0.20;;;27.50;46.40;;;;;;5078119;28;20506;-50
2022/07/09 06:52:41;;;;;;;0.98;0.20;;;27.50;46.20;;;;;;5078401;28;20048;-50
2022/07/09 06:55:10;;;;;;;3.60;0.40;;;27.50;46.10;;;;;;5079247;28;20044;-53
2022/07/09 06:57:37;;;;;;;3.03;1.27;;;27.60;46.00;;;;;;5075507;28;20048;-53
2022/07/09 07:00:05;;;;;;;1.67;0.17;;;27.60;45.90;;;;;;5077812;28;20036;-53
2022/07/09 07:02:33;;;;;;;2.05;0.25;;;27.70;45.80;;;;;;5080831;28;20048;-54
2022/07/09 07:05:02;;;;;;;0.95;0.25;;;27.70;45.70;;;;;;5076693;28;20044;-51
2022/07/09 07:07:29;;;;;;;2.10;0.45;;;27.70;45.60;;;;;;5073448;28;20119;-53
2022/07/09 07:09:56;;;;;;;1.48;0.10;;;27.80;45.60;;;;;;5071079;28;20055;-54
2022/07/09 07:12:23;;;;;;;2.42;0.20;;;27.80;45.50;;;;;;5081349;28;20115;-54
2022/07/09 07:14:50;;;;;;;6.95;0.35;;;27.90;45.40;;;;;;5085751;28;20047;-52
2022/07/09 07:17:17;;;;;;;1.27;0.13;;;27.90;45.30;;;;;;5067750;28;20427;-54
2022/07/09 07:19:44;;;;;;;2.00;0.30;;;27.90;45.20;;;;;;5071912;28;20697;-51
2022/07/09 07:22:12;;;;;;;0.90;0.10;;;28.00;45.20;;;;;;5076189;28;20517;-51
2022/07/09 07:24:39;;;;;;;2.17;0.35;;;28.00;45.10;;;;;;5080327;28;20032;-51
2022/07/09 07:27:07;;;;;;;1.25;0.20;;;28.00;45.00;;;;;;5077393;28;20044;-52
2022/07/09 07:29:34;;;;;;;1.23;0.10;;;28.10;45.00;;;;;;5075304;28;20043;-53
2022/07/09 07:32:01;;;;;;;1.65;0.20;;;28.10;45.60;;;;;;5071398;28;20044;-54
2022/07/09 07:34:28;;;;;;;2.25;0.63;;;28.10;44.80;;;;;;5077917;28;20060;-52
2022/07/09 07:36:55;;;;;;;1.45;0.20;;;28.10;44.80;;;;;;5072432;28;20047;-54
2022/07/09 07:39:24;;;;;;;0.75;0.10;;;28.10;44.70;;;;;;5074897;28;20040;-53
2022/07/09 07:41:51;;;;;;;0.82;0.20;;;28.20;44.70;;;;;;5058745;28;20044;-55
2022/07/09 07:44:19;;;;;;;2.67;0.25;;;28.30;44.70;;;;;;5071972;28;20044;-52
2022/07/09 07:46:46;;;;;;;0.60;0.30;;;28.30;44.60;;;;;;5075126;28;20131;-52
2022/07/09 07:49:13;;;;;;;2.58;0.35;;;28.30;44.50;;;;;;5072631;28;20539;-52
2022/07/09 07:51:41;;;;;;;0.70;0.25;;;28.30;44.40;;;;;;5080693;28;20128;-55
2022/07/09 07:54:08;;;;;;;1.85;0.20;;;28.30;44.40;;;;;;5076530;28;20522;-54
2022/07/09 07:56:38;;;;;;;0.95;0.25;;;28.30;44.30;;;;;;5074163;28;20133;-53
2022/07/09 07:59:05;;;;;;;0.52;0.30;;;28.40;44.30;;;;;;5070024;28;20446;-52
2022/07/09 08:01:32;;;;;;;0.25;0.13;;;28.40;44.20;;;;;;5076306;28;20055;-52
2022/07/09 08:03:59;;;;;;;0.43;0.10;;;28.40;44.20;;;;;;5077963;28;20595;-54
2022/07/09 08:06:26;;;;;;;1.75;0.30;;;28.40;44.10;;;;;;5077586;28;20040;-49
2022/07/09 08:08:53;;;;;;;2.47;0.20;;;28.40;44.00;;;;;;5078657;28;20129;-52
2022/07/09 08:11:20;;;;;;;0.40;0.10;;;28.50;44.00;;;;;;5087826;28;20036;-51
2022/07/09 08:13:48;;;;;;;0.10;0.10;;;28.50;44.00;;;;;;5080338;28;20131;-54
2022/07/09 08:16:15;;;;;;;0.52;0.22;;;28.50;43.90;;;;;;5078509;28;20036;-53
2022/07/09 08:18:42;;;;;;;2.00;0.10;;;28.50;43.80;;;;;;5077196;28;20111;-51
2022/07/09 08:21:09;;;;;;;0.70;0.13;;;28.50;43.70;;;;;;5076399;28;20036;-53
2022/07/09 08:23:51;;;;;;;0.40;0.17;;;28.50;43.70;;;;;;5080426;28;20463;-53
2022/07/09 08:26:19;;;;;;;0.40;0.10;;;28.50;43.60;;;;;;5057587;28;20052;-52
2022/07/09 08:28:48;;;;;;;0.65;0.10;;;28.50;43.60;;;;;;5077963;28;20045;-51
2022/07/09 08:31:15;;;;;;;0.50;0.10;;;28.60;43.60;;;;;;5078677;28;20068;-50
2022/07/09 08:33:42;;;;;;;1.40;0.10;;;28.60;43.60;;;;;;5080676;28;20079;-53
2022/07/09 08:36:09;;;;;;;0.30;0.10;;;28.60;43.50;;;;;;5081485;28;20142;-53
2022/07/09 08:38:36;;;;;;;1.25;0.10;;;28.60;43.50;;;;;;5078278;28;20032;-50
2022/07/09 08:41:05;;;;;;;0.35;0.03;;;28.60;43.40;;;;;;5087780;28;20048;-54
2022/07/09 08:43:34;;;;;;;1.95;0.10;;;28.60;43.30;;;;;;5080650;28;20139;-53
2022/07/09 08:46:02;;;;;;;0.20;0.20;;;28.60;43.30;;;;;;5075616;28;20041;-54
2022/07/09 08:48:33;;;;;;;1.77;0.30;;;28.70;43.30;;;;;;5077862;28;20477;-54
2022/07/09 08:51:01;;;;;;;0.40;0.10;;;28.70;43.30;;;;;;5080357;28;20075;-52
2022/07/09 08:53:29;;;;;;;1.75;0.10;;;28.70;43.20;;;;;;5085616;28;20048;-53
2022/07/09 08:55:57;;;;;;;0.70;0.10;;;28.70;43.20;;;;;;5075243;28;20139;-54
2022/07/09 08:58:24;;;;;;;0.28;0.10;;;28.70;43.10;;;;;;5075607;28;20490;-54
2022/07/09 09:00:52;;;;;;;0.63;0.10;;;28.70;43.10;;;;;;5073430;28;20051;-53
2022/07/09 09:03:21;;;;;;;0.45;0.17;;;28.70;43.70;;;;;;5080608;28;20040;-53
2022/07/09 09:06:02;;;;;;;0.45;0.05;;;28.70;43.00;;;;;;5077506;28;20044;-54
2022/07/09 09:08:35;;;;;;;0.73;0.10;;;28.70;42.90;;;;;;5076102;28;20062;-55
2022/07/09 09:11:02;;;;;;;1.30;0.20;;;28.80;43.00;;;;;;5075180;28;20044;-53
2022/07/09 09:13:30;;;;;;;0.80;0.10;;;28.80;42.90;;;;;;5085145;28;20094;-52
2022/07/09 09:16:05;;;;;;;0.20;0.15;;;28.80;42.90;;;;;;5079504;28;20056;-56
2022/07/09 09:18:35;;;;;;;0.80;0.80;;;28.80;42.90;;;;;;5077565;28;20150;-55
2022/07/09 09:21:04;;;;;;;0.25;0.10;;;28.80;42.80;;;;;;5077239;28;20076;-54
2022/07/09 09:23:40;;;;;;;1.27;0.13;;;28.80;42.80;;;;;;5078993;28;21032;-51
2022/07/09 09:26:12;;;;;;;0.17;0.10;;;28.80;42.70;;;;;;5067042;28;20079;-55
2022/07/09 09:28:52;;;;;;;0.50;0.10;;;28.80;42.70;;;;;;5078359;28;20060;-55
2022/07/09 09:31:24;;;;;;;1.55;0.10;;;28.90;42.70;;;;;;5078069;28;20045;-54
2022/07/09 09:33:54;;;;;;;0.25;0.10;;;28.80;42.70;;;;;;5065529;28;20051;-52
2022/07/09 09:36:29;;;;;;;0.30;0.10;;;28.90;42.70;;;;;;5081097;28;20112;-52
2022/07/09 09:39:11;;;;;;;0.82;0.10;;;28.90;42.70;;;;;;5061291;28;20048;-53
2022/07/09 09:41:39;;;;;;;0.93;0.10;;;28.90;42.60;;;;;;5076083;28;20134;-54
2022/07/09 09:44:09;;;;;;;0.35;0.10;;;28.90;42.60;;;;;;5070389;28;20060;-54
2022/07/09 09:46:37;;;;;;;0.70;0.10;;;28.90;42.60;;;;;;5076993;28;20048;-54
2022/07/09 09:49:07;;;;;;;0.35;0.20;;;28.90;42.60;;;;;;5074006;28;20033;-52
2022/07/09 09:51:42;;;;;;;0.50;0.30;;;28.90;42.50;;;;;;5080990;28;20078;-55
2022/07/09 09:54:09;;;;;;;0.43;0.10;;;29.00;42.60;;;;;;5081721;28;20109;-54
2022/07/09 09:56:36;;;;;;;0.22;0.10;;;28.90;42.40;;;;;;5075049;28;20047;-56
2022/07/09 09:59:04;;;;;;;1.05;0.43;;;28.90;42.40;;;;;;5054431;28;20048;-51
2022/07/09 10:01:31;;;;;;;0.57;0.08;;;29.00;42.40;;;;;;5078907;28;20051;-55
2022/07/09 10:03:58;;;;;;;0.30;0.20;;;29.00;42.40;;;;;;5076477;28;20045;-51
2022/07/09 10:06:27;;;;;;;0.57;0.10;;;29.00;42.30;;;;;;5063366;28;20045;-51
2022/07/09 10:08:55;;;;;;;0.10;0.10;;;29.00;42.30;;;;;;5077275;28;20044;-55
2022/07/09 10:11:22;;;;;;;0.30;0.30;;;29.00;42.30;;;;;;5076422;28;20164;-52
2022/07/09 10:13:54;;;;;;;0.20;0.10;;;29.00;42.30;;;;;;5073549;28;20060;-53
2022/07/09 10:16:37;;;;;;;0.75;0.40;;;29.00;42.20;;;;;;5078424;28;20449;-55
2022/07/09 10:19:04;;;;;;;0.85;0.85;;;29.10;42.20;;;;;;5073951;28;20045;-55
2022/07/09 10:21:39;;;;;;;0.20;0.10;;;29.00;42.10;;;;;;5078016;28;20870;-53
2022/07/09 10:24:07;;;;;;;0.28;0.10;;;29.00;42.00;;;;;;5083282;28;20036;-51
2022/07/09 10:26:41;;;;;;;0.10;0.10;;;29.10;42.10;;;;;;5073528;28;20041;-54
2022/07/09 10:29:23;;;;;;;0.55;0.10;;;29.10;42.00;;;;;;5067820;28;20036;-54
2022/07/09 10:31:50;;;;;;;0.10;0.10;;;29.10;41.90;;;;;;5059547;28;20126;-54
2022/07/09 10:34:40;;;;;;;0.50;0.10;;;29.10;42.50;;;;;;5073355;28;20055;-56
2022/07/09 10:37:08;;;;;;;0.40;0.10;;;29.10;41.90;;;;;;5081470;28;20048;-54
2022/07/09 10:39:35;;;;;;;0.10;0.10;;;29.10;41.90;;;;;;5083648;28;20028;-54
2022/07/09 10:42:04;;;;;;;0.43;0.08;;;29.10;41.80;;;;;;5086865;28;20048;-55
2022/07/09 10:44:35;;;;;;;0.70;0.08;;;29.20;41.70;;;;;;5070130;28;20049;-53
2022/07/09 10:47:03;;;;;;;1.45;0.00;;;29.20;41.60;;;;;;5086570;28;20051;-55
2022/07/09 10:49:30;;;;;;;0.95;0.00;;;29.20;41.50;;;;;;5076218;28;20068;-56
2022/07/09 10:51:58;;;;;;;0.98;0.10;;;29.20;41.50;;;;;;5080001;28;20044;-55
2022/07/09 10:54:27;;;;;;;0.05;0.00;;;29.20;41.40;;;;;;5079854;28;20393;-55
2022/07/09 10:56:55;;;;;;;1.33;0.10;;;29.30;41.40;;;;;;5073534;28;20515;-51
2022/07/09 10:59:22;;;;;;;0.10;0.10;;;29.20;41.20;;;;;;5074741;28;20051;-56
2022/07/09 11:01:51;;;;;;;0.68;0.10;;;29.30;41.30;;;;;;5074213;28;20572;-56
2022/07/09 11:04:28;;;;;;;0.00;0.00;;;29.30;41.20;;;;;;5073710;28;20523;-56
2022/07/09 11:06:56;;;;;;;0.30;0.10;;;29.30;41.20;;;;;;5078476;28;20044;-56
2022/07/09 11:09:23;;;;;;;0.52;0.10;;;29.30;41.20;;;;;;5080491;28;20066;-55
2022/07/09 11:11:52;;;;;;;0.10;0.10;;;29.30;41.20;;;;;;5075474;28;20123;-55
2022/07/09 11:14:19;;;;;;;0.15;0.10;;;29.30;41.20;;;;;;5086325;28;20059;-54
2022/07/09 11:16:54;;;;;;;0.55;0.10;;;29.40;41.20;;;;;;5072179;28;20147;-52
2022/07/09 11:19:21;;;;;;;1.65;0.10;;;29.40;41.20;;;;;;5078291;28;20086;-55
2022/07/09 11:21:49;;;;;;;0.50;0.00;;;29.40;41.20;;;;;;5075071;28;20036;-56
2022/07/09 11:24:18;;;;;;;0.25;0.10;;;29.40;41.20;;;;;;5083624;28;20036;-55
2022/07/09 11:26:46;;;;;;;0.30;0.10;;;29.40;41.70;;;;;;5075708;28;20401;-54
2022/07/09 11:29:17;;;;;;;0.40;0.00;;;29.40;41.00;;;;;;5075237;28;20119;-53
2022/07/09 11:31:48;;;;;;;0.60;0.05;;;29.50;41.10;;;;;;5073883;28;20459;-53
2022/07/09 11:34:16;;;;;;;0.65;0.10;;;29.50;41.00;;;;;;5079353;28;20044;-55
2022/07/09 11:36:45;;;;;;;0.22;0.22;;;29.50;41.00;;;;;;5074644;28;20501;-56
2022/07/09 11:39:23;;;;;;;0.77;0.10;;;29.60;41.00;;;;;;5076995;28;20120;-56
2022/07/09 11:41:51;;;;;;;0.10;0.10;;;29.60;40.90;;;;;;5071591;28;20531;-55
2022/07/09 11:44:24;;;;;;;0.45;0.10;;;29.60;40.80;;;;;;5074939;28;20044;-54
2022/07/09 11:47:08;;;;;;;0.10;0.10;;;29.60;40.70;;;;;;5070486;28;20114;-54
2022/07/09 11:49:40;;;;;;;0.10;0.10;;;29.60;40.60;;;;;;5075068;28;20048;-56
2022/07/09 11:52:18;;;;;;;0.08;0.08;;;29.70;40.70;;;;;;5079083;28;20048;-56
2022/07/09 11:54:56;;;;;;;0.85;0.10;;;29.70;40.60;;;;;;5076800;28;20044;-55
2022/07/09 11:57:24;;;;;;;0.25;0.25;;;29.70;40.50;;;;;;5078040;28;20416;-54
2022/07/09 11:59:52;;;;;;;0.90;0.22;;;29.70;40.50;;;;;;5074745;28;20143;-55
2022/07/09 12:02:32;;;;;;;0.15;0.08;;;29.80;40.60;;;;;;5075699;28;20600;-55
2022/07/09 12:04:59;;;;;;;0.10;0.10;;;29.80;40.50;;;;;;5069613;28;20048;-55
2022/07/09 12:07:26;;;;;;;0.47;0.00;;;29.80;40.40;;;;;;5077174;28;20486;-55
2022/07/09 12:10:00;;;;;;;0.30;0.10;;;29.90;40.40;;;;;;5084047;28;20043;-55
2022/07/09 12:12:28;;;;;;;0.20;0.15;;;30.00;40.40;;;;;;5073938;28;20136;-55
2022/07/09 12:14:56;;;;;;;0.55;0.25;;;30.00;40.40;;;;;;5068514;28;20045;-54
2022/07/09 12:17:24;;;;;;;0.20;0.00;;;30.00;40.20;;;;;;5057414;28;20124;-51
2022/07/09 12:19:51;;;;;;;0.43;0.10;;;30.00;40.20;;;;;;5073572;28;20036;-54
2022/07/09 12:22:19;;;;;;;0.20;0.10;;;30.00;40.10;;;;;;5074427;28;20051;-52
2022/07/09 12:24:46;;;;;;;1.48;0.30;;;30.10;40.10;;;;;;5080802;28;20040;-55
2022/07/09 12:27:13;;;;;;;0.43;0.10;;;30.20;40.70;;;;;;5074648;28;20707;-55
2022/07/09 12:29:40;;;;;;;0.17;0.10;;;30.20;40.00;;;;;;5074409;28;20036;-53
2022/07/09 12:32:09;;;;;;;0.10;0.10;;;30.20;40.00;;;;;;5072252;28;20036;-55
2022/07/09 12:34:36;;;;;;;0.10;0.03;;;30.30;39.80;;;;;;5072856;28;20044;-54
2022/07/09 12:37:04;;;;;;;1.73;0.10;;;30.30;39.70;;;;;;5070881;28;20532;-51
2022/07/09 12:39:31;;;;;;;0.10;0.10;;;30.30;39.70;;;;;;5077439;28;20037;-56
2022/07/09 12:41:59;;;;;;;0.28;0.00;;;30.30;39.60;;;;;;5074905;28;20076;-55
2022/07/09 12:44:26;;;;;;;1.75;0.10;;;30.40;39.60;;;;;;5073821;28;20070;-54
2022/07/09 12:46:53;;;;;;;0.30;0.00;;;30.50;39.60;;;;;;5069865;28;20086;-56
2022/07/09 12:49:22;;;;;;;0.32;0.20;;;30.50;39.40;;;;;;5082430;28;20036;-54
2022/07/09 12:51:49;;;;;;;0.05;0.05;;;30.50;39.40;;;;;;5076113;28;20090;-55
2022/07/09 12:54:16;;;;;;;0.40;0.10;;;30.60;39.30;;;;;;5082371;28;20041;-55